George Town, Malaysia
Current Conditions -  °F | °C
As of 5:00 PM on Friday 31 Oct 2014 (Local Time) from WMKB Reporting Station
Broken Clouds Broken Clouds  
Wind Chill: 88°   Ceiling: 28000
Heat Index: 100°   Visibility: 6mi
Dew Point: 77°   Wind: 12mph
Humidity: 70%   Direction: 300°WNW
Pressure: 29.68"   Gusts: NA
Location:  5.42°N, 100.33°E
Report Text: WMKB 310900Z 30010KT 260V340 9999 FEW017CB SCT020 BKN280 31/25 Q1005 NOSIG
Loading
Personal Weather Stations






























Interactive Weather Map
Tropical Storm Tracking
New forecast layout! Learn more

10-Day Weather Forecast

Advertisements
Track Severe Weather on mobile